Terminal Aerodrome Forecast
Issued by NWS Jackson, MS

Home | Current Version | Previous Version | Text Only | Print | Product List | Glossary On
Versions: 1 2 3 4 5 6 7 8 9 10 11 12 13 14 15 16 17 18 19 20 21
000
FTUS44 KJAN 011900 AAA
TAFGLH
TAF AMD
KGLH 011900Z 0119/0218 19010G20KT 6SM -TSRA SCT030 BKN050CB
     FM012030 18009KT P6SM VCTS SCT030 BKN050CB
     FM020000 17007KT P6SM SCT050 SCT100
     FM021000 18006KT 6SM BR BKN015
     FM021500 20007KT P6SM BKN025
     FM021630 22008KT P6SM SCT030=

USA.gov is the U.S. government's official web portal to all federal, state and local government web resources and services.